sensor_id;sensor_type;location;lat;lon;timestamp;P1;durP1;ratioP1;P2;durP2;ratioP2
36575;SDS011;45700;50.930;5.168;2022-08-16T00:03:52;3.25;;;2.60;;
36575;SDS011;45700;50.930;5.168;2022-08-16T00:07:53;2.95;;;2.17;;
36575;SDS011;45700;50.930;5.168;2022-08-16T00:11:54;3.13;;;2.40;;
36575;SDS011;45700;50.930;5.168;2022-08-16T00:15:56;2.33;;;2.00;;
36575;SDS011;45700;50.930;5.168;2022-08-16T00:19:56;2.50;;;2.30;;
36575;SDS011;45700;50.930;5.168;2022-08-16T00:23:58;2.78;;;2.13;;
36575;SDS011;45700;50.930;5.168;2022-08-16T00:27:59;3.35;;;2.47;;
36575;SDS011;45700;50.930;5.168;2022-08-16T00:32:00;2.65;;;2.20;;
36575;SDS011;45700;50.930;5.168;2022-08-16T00:36:02;2.33;;;2.10;;
36575;SDS011;45700;50.930;5.168;2022-08-16T00:40:04;4.85;;;2.13;;
36575;SDS011;45700;50.930;5.168;2022-08-16T00:44:07;3.28;;;2.17;;
36575;SDS011;45700;50.930;5.168;2022-08-16T00:48:11;2.42;;;2.15;;
36575;SDS011;45700;50.930;5.168;2022-08-16T00:52:13;3.33;;;2.20;;
36575;SDS011;45700;50.930;5.168;2022-08-16T00:56:15;2.58;;;2.28;;
36575;SDS011;45700;50.930;5.168;2022-08-16T01:00:17;3.70;;;2.55;;
36575;SDS011;45700;50.930;5.168;2022-08-16T01:04:20;4.13;;;2.38;;
36575;SDS011;45700;50.930;5.168;2022-08-16T01:08:22;2.72;;;2.33;;
36575;SDS011;45700;50.930;5.168;2022-08-16T01:12:23;2.58;;;2.33;;
36575;SDS011;45700;50.930;5.168;2022-08-16T01:16:25;3.38;;;2.53;;
36575;SDS011;45700;50.930;5.168;2022-08-16T01:20:27;4.82;;;2.35;;
36575;SDS011;45700;50.930;5.168;2022-08-16T01:24:39;3.13;;;2.30;;
36575;SDS011;45700;50.930;5.168;2022-08-16T01:28:41;3.10;;;2.30;;
36575;SDS011;45700;50.930;5.168;2022-08-16T01:32:44;3.05;;;2.40;;
36575;SDS011;45700;50.930;5.168;2022-08-16T01:36:45;2.47;;;2.20;;
36575;SDS011;45700;50.930;5.168;2022-08-16T01:40:46;3.03;;;2.60;;
36575;SDS011;45700;50.930;5.168;2022-08-16T01:44:48;3.85;;;2.58;;
36575;SDS011;45700;50.930;5.168;2022-08-16T01:48:52;3.83;;;2.30;;
36575;SDS011;45700;50.930;5.168;2022-08-16T01:52:53;3.42;;;2.45;;
36575;SDS011;45700;50.930;5.168;2022-08-16T01:56:55;3.08;;;2.40;;
36575;SDS011;45700;50.930;5.168;2022-08-16T02:00:56;3.33;;;2.50;;
36575;SDS011;45700;50.930;5.168;2022-08-16T02:04:57;3.15;;;2.53;;
36575;SDS011;45700;50.930;5.168;2022-08-16T02:08:59;3.67;;;2.78;;
36575;SDS011;45700;50.930;5.168;2022-08-16T02:13:00;3.67;;;2.85;;
36575;SDS011;45700;50.930;5.168;2022-08-16T02:17:03;3.15;;;2.83;;
36575;SDS011;45700;50.930;5.168;2022-08-16T02:21:05;3.53;;;2.72;;
36575;SDS011;45700;50.930;5.168;2022-08-16T02:25:08;7.68;;;3.08;;
36575;SDS011;45700;50.930;5.168;2022-08-16T02:29:09;3.25;;;2.40;;
36575;SDS011;45700;50.930;5.168;2022-08-16T02:33:11;4.18;;;3.22;;
36575;SDS011;45700;50.930;5.168;2022-08-16T02:37:12;3.83;;;2.63;;
36575;SDS011;45700;50.930;5.168;2022-08-16T02:41:13;5.95;;;3.47;;
36575;SDS011;45700;50.930;5.168;2022-08-16T02:45:15;4.05;;;3.17;;
36575;SDS011;45700;50.930;5.168;2022-08-16T02:49:16;4.65;;;3.50;;
36575;SDS011;45700;50.930;5.168;2022-08-16T02:53:18;4.35;;;3.20;;
36575;SDS011;45700;50.930;5.168;2022-08-16T02:57:19;4.65;;;3.58;;
36575;SDS011;45700;50.930;5.168;2022-08-16T03:01:24;5.20;;;3.17;;
36575;SDS011;45700;50.930;5.168;2022-08-16T03:05:25;5.18;;;3.50;;
36575;SDS011;45700;50.930;5.168;2022-08-16T03:09:26;6.13;;;3.15;;
36575;SDS011;45700;50.930;5.168;2022-08-16T03:13:27;4.35;;;3.70;;
36575;SDS011;45700;50.930;5.168;2022-08-16T03:17:28;5.10;;;2.97;;
36575;SDS011;45700;50.930;5.168;2022-08-16T03:21:30;4.25;;;3.08;;
36575;SDS011;45700;50.930;5.168;2022-08-16T03:25:32;4.88;;;3.33;;
36575;SDS011;45700;50.930;5.168;2022-08-16T03:29:33;5.40;;;3.95;;
36575;SDS011;45700;50.930;5.168;2022-08-16T03:33:34;7.47;;;4.07;;
36575;SDS011;45700;50.930;5.168;2022-08-16T03:37:35;5.35;;;4.28;;
36575;SDS011;45700;50.930;5.168;2022-08-16T03:41:37;5.38;;;3.80;;
36575;SDS011;45700;50.930;5.168;2022-08-16T03:45:40;6.00;;;4.22;;
36575;SDS011;45700;50.930;5.168;2022-08-16T03:49:41;5.32;;;3.70;;
36575;SDS011;45700;50.930;5.168;2022-08-16T03:53:42;5.63;;;4.10;;
36575;SDS011;45700;50.930;5.168;2022-08-16T03:57:43;6.28;;;4.22;;
36575;SDS011;45700;50.930;5.168;2022-08-16T04:01:44;4.55;;;3.55;;
36575;SDS011;45700;50.930;5.168;2022-08-16T04:05:46;5.78;;;4.03;;
36575;SDS011;45700;50.930;5.168;2022-08-16T04:09:47;5.70;;;3.72;;
36575;SDS011;45700;50.930;5.168;2022-08-16T04:13:49;5.03;;;3.97;;
36575;SDS011;45700;50.930;5.168;2022-08-16T04:17:50;5.00;;;3.70;;
36575;SDS011;45700;50.930;5.168;2022-08-16T04:21:51;6.05;;;3.92;;
36575;SDS011;45700;50.930;5.168;2022-08-16T04:25:52;6.13;;;3.70;;
36575;SDS011;45700;50.930;5.168;2022-08-16T04:29:53;5.10;;;3.78;;
36575;SDS011;45700;50.930;5.168;2022-08-16T04:33:56;5.35;;;3.83;;
36575;SDS011;45700;50.930;5.168;2022-08-16T04:37:58;5.07;;;3.90;;
36575;SDS011;45700;50.930;5.168;2022-08-16T04:41:59;7.43;;;4.20;;
36575;SDS011;45700;50.930;5.168;2022-08-16T04:46:00;5.03;;;3.85;;
36575;SDS011;45700;50.930;5.168;2022-08-16T04:50:09;5.28;;;4.05;;
36575;SDS011;45700;50.930;5.168;2022-08-16T04:54:10;5.57;;;4.13;;
36575;SDS011;45700;50.930;5.168;2022-08-16T04:58:11;5.65;;;3.70;;
36575;SDS011;45700;50.930;5.168;2022-08-16T05:02:12;4.97;;;3.70;;
36575;SDS011;45700;50.930;5.168;2022-08-16T05:06:13;6.15;;;4.15;;
36575;SDS011;45700;50.930;5.168;2022-08-16T05:10:14;7.55;;;3.95;;
36575;SDS011;45700;50.930;5.168;2022-08-16T05:14:16;5.70;;;3.60;;
36575;SDS011;45700;50.930;5.168;2022-08-16T05:18:17;5.57;;;3.78;;
36575;SDS011;45700;50.930;5.168;2022-08-16T05:22:18;5.30;;;4.20;;
36575;SDS011;45700;50.930;5.168;2022-08-16T05:26:19;6.72;;;4.47;;
36575;SDS011;45700;50.930;5.168;2022-08-16T05:30:20;6.18;;;3.63;;
36575;SDS011;45700;50.930;5.168;2022-08-16T05:34:21;7.50;;;3.80;;
36575;SDS011;45700;50.930;5.168;2022-08-16T05:38:24;6.75;;;4.38;;
36575;SDS011;45700;50.930;5.168;2022-08-16T05:42:26;9.18;;;4.15;;
36575;SDS011;45700;50.930;5.168;2022-08-16T05:46:27;4.72;;;3.92;;
36575;SDS011;45700;50.930;5.168;2022-08-16T05:50:28;5.10;;;4.05;;
36575;SDS011;45700;50.930;5.168;2022-08-16T05:54:29;6.45;;;4.30;;
36575;SDS011;45700;50.930;5.168;2022-08-16T05:58:30;5.63;;;3.88;;
36575;SDS011;45700;50.930;5.168;2022-08-16T06:02:31;6.05;;;5.00;;
36575;SDS011;45700;50.930;5.168;2022-08-16T06:06:33;6.22;;;4.53;;
36575;SDS011;45700;50.930;5.168;2022-08-16T06:10:34;6.25;;;4.63;;
36575;SDS011;45700;50.930;5.168;2022-08-16T06:14:35;6.57;;;4.45;;
36575;SDS011;45700;50.930;5.168;2022-08-16T06:18:35;8.02;;;5.10;;
36575;SDS011;45700;50.930;5.168;2022-08-16T06:22:37;7.10;;;4.82;;
36575;SDS011;45700;50.930;5.168;2022-08-16T06:26:38;7.00;;;4.88;;
36575;SDS011;45700;50.930;5.168;2022-08-16T06:30:39;7.10;;;4.90;;
36575;SDS011;45700;50.930;5.168;2022-08-16T06:34:40;7.40;;;4.80;;
36575;SDS011;45700;50.930;5.168;2022-08-16T06:38:41;7.10;;;5.40;;
36575;SDS011;45700;50.930;5.168;2022-08-16T06:42:42;6.78;;;5.10;;
36575;SDS011;45700;50.930;5.168;2022-08-16T06:46:43;8.38;;;5.20;;
36575;SDS011;45700;50.930;5.168;2022-08-16T06:50:44;5.82;;;4.47;;
36575;SDS011;45700;50.930;5.168;2022-08-16T06:54:47;8.15;;;5.60;;
36575;SDS011;45700;50.930;5.168;2022-08-16T06:58:48;8.00;;;5.68;;
36575;SDS011;45700;50.930;5.168;2022-08-16T07:02:49;8.38;;;5.32;;
36575;SDS011;45700;50.930;5.168;2022-08-16T07:06:52;7.15;;;5.30;;
36575;SDS011;45700;50.930;5.168;2022-08-16T07:10:53;8.27;;;5.30;;
36575;SDS011;45700;50.930;5.168;2022-08-16T07:14:55;8.65;;;5.50;;
36575;SDS011;45700;50.930;5.168;2022-08-16T07:18:56;8.18;;;5.28;;
36575;SDS011;45700;50.930;5.168;2022-08-16T07:22:58;6.45;;;5.30;;
36575;SDS011;45700;50.930;5.168;2022-08-16T07:26:59;7.50;;;5.50;;
36575;SDS011;45700;50.930;5.168;2022-08-16T07:31:00;8.00;;;5.30;;
36575;SDS011;45700;50.930;5.168;2022-08-16T07:35:02;6.70;;;4.75;;
36575;SDS011;45700;50.930;5.168;2022-08-16T07:39:03;6.50;;;5.20;;
36575;SDS011;45700;50.930;5.168;2022-08-16T07:43:04;7.65;;;5.55;;
36575;SDS011;45700;50.930;5.168;2022-08-16T07:47:05;7.07;;;4.88;;
36575;SDS011;45700;50.930;5.168;2022-08-16T07:51:06;6.90;;;5.15;;
36575;SDS011;45700;50.930;5.168;2022-08-16T07:55:08;8.05;;;5.43;;
36575;SDS011;45700;50.930;5.168;2022-08-16T07:59:09;7.70;;;5.60;;
36575;SDS011;45700;50.930;5.168;2022-08-16T08:03:11;9.07;;;5.90;;
36575;SDS011;45700;50.930;5.168;2022-08-16T08:07:12;6.78;;;4.85;;
36575;SDS011;45700;50.930;5.168;2022-08-16T08:11:13;6.90;;;5.30;;
36575;SDS011;45700;50.930;5.168;2022-08-16T08:15:14;7.15;;;5.25;;
36575;SDS011;45700;50.930;5.168;2022-08-16T08:19:15;6.10;;;5.22;;
36575;SDS011;45700;50.930;5.168;2022-08-16T08:23:16;7.13;;;5.20;;
36575;SDS011;45700;50.930;5.168;2022-08-16T08:27:19;7.50;;;5.15;;
36575;SDS011;45700;50.930;5.168;2022-08-16T08:31:20;8.07;;;5.30;;
36575;SDS011;45700;50.930;5.168;2022-08-16T08:35:21;7.40;;;4.90;;
36575;SDS011;45700;50.930;5.168;2022-08-16T08:39:22;6.85;;;4.90;;
36575;SDS011;45700;50.930;5.168;2022-08-16T08:43:23;6.65;;;5.00;;
36575;SDS011;45700;50.930;5.168;2022-08-16T08:47:24;4.78;;;4.30;;
36575;SDS011;45700;50.930;5.168;2022-08-16T08:51:26;7.03;;;5.28;;
36575;SDS011;45700;50.930;5.168;2022-08-16T08:55:27;6.07;;;4.60;;
36575;SDS011;45700;50.930;5.168;2022-08-16T08:59:30;7.00;;;4.70;;
36575;SDS011;45700;50.930;5.168;2022-08-16T09:03:32;6.47;;;4.55;;
36575;SDS011;45700;50.930;5.168;2022-08-16T09:07:34;5.50;;;4.07;;
36575;SDS011;45700;50.930;5.168;2022-08-16T09:11:37;5.60;;;4.57;;
36575;SDS011;45700;50.930;5.168;2022-08-16T09:15:38;5.65;;;4.07;;
36575;SDS011;45700;50.930;5.168;2022-08-16T09:19:39;6.00;;;4.90;;
36575;SDS011;45700;50.930;5.168;2022-08-16T09:23:41;5.97;;;4.32;;
36575;SDS011;45700;50.930;5.168;2022-08-16T09:27:42;7.18;;;4.32;;
36575;SDS011;45700;50.930;5.168;2022-08-16T09:31:43;6.85;;;4.15;;
36575;SDS011;45700;50.930;5.168;2022-08-16T09:35:44;5.65;;;4.03;;
36575;SDS011;45700;50.930;5.168;2022-08-16T09:39:45;8.30;;;4.70;;
36575;SDS011;45700;50.930;5.168;2022-08-16T09:43:46;5.82;;;4.47;;
36575;SDS011;45700;50.930;5.168;2022-08-16T09:47:47;5.53;;;4.30;;
36575;SDS011;45700;50.930;5.168;2022-08-16T09:51:53;5.38;;;4.25;;
36575;SDS011;45700;50.930;5.168;2022-08-16T09:55:55;6.85;;;4.57;;
36575;SDS011;45700;50.930;5.168;2022-08-16T09:59:56;5.57;;;3.90;;
36575;SDS011;45700;50.930;5.168;2022-08-16T10:03:59;4.95;;;3.53;;
36575;SDS011;45700;50.930;5.168;2022-08-16T10:08:00;4.50;;;4.03;;
36575;SDS011;45700;50.930;5.168;2022-08-16T10:12:01;4.25;;;3.80;;
36575;SDS011;45700;50.930;5.168;2022-08-16T10:16:21;5.35;;;4.32;;
36575;SDS011;45700;50.930;5.168;2022-08-16T10:20:22;4.75;;;3.70;;
36575;SDS011;45700;50.930;5.168;2022-08-16T10:24:25;4.55;;;3.72;;
36575;SDS011;45700;50.930;5.168;2022-08-16T10:28:26;4.70;;;4.05;;
36575;SDS011;45700;50.930;5.168;2022-08-16T10:32:28;5.75;;;3.88;;
36575;SDS011;45700;50.930;5.168;2022-08-16T10:36:29;4.35;;;3.75;;
36575;SDS011;45700;50.930;5.168;2022-08-16T10:40:30;4.88;;;3.97;;
36575;SDS011;45700;50.930;5.168;2022-08-16T10:44:31;5.93;;;4.50;;
36575;SDS011;45700;50.930;5.168;2022-08-16T10:48:32;5.38;;;4.45;;
36575;SDS011;45700;50.930;5.168;2022-08-16T10:52:34;7.25;;;4.47;;
36575;SDS011;45700;50.930;5.168;2022-08-16T10:56:35;5.90;;;4.43;;
36575;SDS011;45700;50.930;5.168;2022-08-16T11:00:36;6.07;;;4.43;;
36575;SDS011;45700;50.930;5.168;2022-08-16T11:04:39;5.93;;;4.07;;
36575;SDS011;45700;50.930;5.168;2022-08-16T11:08:40;5.18;;;4.15;;
36575;SDS011;45700;50.930;5.168;2022-08-16T11:12:42;4.45;;;3.80;;
36575;SDS011;45700;50.930;5.168;2022-08-16T11:16:43;6.05;;;4.57;;
36575;SDS011;45700;50.930;5.168;2022-08-16T11:20:44;5.10;;;4.05;;
36575;SDS011;45700;50.930;5.168;2022-08-16T11:24:46;5.22;;;4.20;;
36575;SDS011;45700;50.930;5.168;2022-08-16T11:28:47;5.10;;;4.28;;
36575;SDS011;45700;50.930;5.168;2022-08-16T11:32:49;5.45;;;3.95;;
36575;SDS011;45700;50.930;5.168;2022-08-16T11:36:50;4.00;;;3.60;;
36575;SDS011;45700;50.930;5.168;2022-08-16T11:40:53;6.13;;;4.05;;
36575;SDS011;45700;50.930;5.168;2022-08-16T11:44:57;6.18;;;3.60;;
36575;SDS011;45700;50.930;5.168;2022-08-16T11:48:58;6.05;;;3.63;;
36575;SDS011;45700;50.930;5.168;2022-08-16T11:53:00;4.00;;;3.53;;
36575;SDS011;45700;50.930;5.168;2022-08-16T11:57:01;5.25;;;4.03;;
36575;SDS011;45700;50.930;5.168;2022-08-16T12:01:02;6.70;;;4.20;;
36575;SDS011;45700;50.930;5.168;2022-08-16T12:05:43;5.18;;;3.80;;
36575;SDS011;45700;50.930;5.168;2022-08-16T12:09:44;6.57;;;3.80;;
36575;SDS011;45700;50.930;5.168;2022-08-16T12:13:45;5.80;;;3.88;;
36575;SDS011;45700;50.930;5.168;2022-08-16T12:17:46;5.45;;;3.40;;
36575;SDS011;45700;50.930;5.168;2022-08-16T12:21:47;3.22;;;2.83;;
36575;SDS011;45700;50.930;5.168;2022-08-16T12:25:48;4.25;;;3.20;;
36575;SDS011;45700;50.930;5.168;2022-08-16T12:29:52;4.00;;;2.97;;
36575;SDS011;45700;50.930;5.168;2022-08-16T12:33:53;3.20;;;2.90;;
36575;SDS011;45700;50.930;5.168;2022-08-16T12:37:55;3.15;;;2.80;;
36575;SDS011;45700;50.930;5.168;2022-08-16T12:41:57;5.05;;;3.30;;
36575;SDS011;45700;50.930;5.168;2022-08-16T12:45:58;4.50;;;3.00;;
36575;SDS011;45700;50.930;5.168;2022-08-16T12:49:59;3.90;;;2.60;;
36575;SDS011;45700;50.930;5.168;2022-08-16T12:54:02;4.15;;;3.20;;
36575;SDS011;45700;50.930;5.168;2022-08-16T12:58:03;4.65;;;3.17;;
36575;SDS011;45700;50.930;5.168;2022-08-16T13:02:05;3.75;;;2.65;;
36575;SDS011;45700;50.930;5.168;2022-08-16T13:06:06;3.83;;;3.00;;
36575;SDS011;45700;50.930;5.168;2022-08-16T13:10:08;3.28;;;2.97;;
36575;SDS011;45700;50.930;5.168;2022-08-16T13:14:14;3.72;;;2.53;;
36575;SDS011;45700;50.930;5.168;2022-08-16T13:18:15;3.15;;;2.47;;
36575;SDS011;45700;50.930;5.168;2022-08-16T13:22:16;4.35;;;2.80;;
36575;SDS011;45700;50.930;5.168;2022-08-16T13:26:17;4.38;;;3.20;;
36575;SDS011;45700;50.930;5.168;2022-08-16T13:30:19;3.42;;;2.95;;
36575;SDS011;45700;50.930;5.168;2022-08-16T13:34:20;3.78;;;2.95;;
36575;SDS011;45700;50.930;5.168;2022-08-16T13:38:22;5.28;;;3.10;;
36575;SDS011;45700;50.930;5.168;2022-08-16T13:42:23;4.45;;;3.22;;
36575;SDS011;45700;50.930;5.168;2022-08-16T13:46:24;3.42;;;2.92;;
36575;SDS011;45700;50.930;5.168;2022-08-16T13:50:25;3.20;;;2.90;;
36575;SDS011;45700;50.930;5.168;2022-08-16T13:54:27;3.72;;;3.17;;
36575;SDS011;45700;50.930;5.168;2022-08-16T13:58:28;4.97;;;3.25;;
36575;SDS011;45700;50.930;5.168;2022-08-16T14:02:29;5.38;;;2.92;;
36575;SDS011;45700;50.930;5.168;2022-08-16T14:06:31;3.08;;;2.47;;
36575;SDS011;45700;50.930;5.168;2022-08-16T14:10:32;4.25;;;3.22;;
36575;SDS011;45700;50.930;5.168;2022-08-16T14:14:33;3.35;;;3.05;;
36575;SDS011;45700;50.930;5.168;2022-08-16T14:18:33;4.60;;;2.80;;
36575;SDS011;45700;50.930;5.168;2022-08-16T14:22:35;7.72;;;3.05;;
36575;SDS011;45700;50.930;5.168;2022-08-16T14:26:37;3.45;;;2.60;;
36575;SDS011;45700;50.930;5.168;2022-08-16T14:30:38;3.78;;;2.75;;
36575;SDS011;45700;50.930;5.168;2022-08-16T14:34:39;3.05;;;2.67;;
36575;SDS011;45700;50.930;5.168;2022-08-16T14:38:40;5.35;;;2.80;;
36575;SDS011;45700;50.930;5.168;2022-08-16T14:42:41;3.15;;;2.65;;
36575;SDS011;45700;50.930;5.168;2022-08-16T14:46:43;4.10;;;2.65;;
36575;SDS011;45700;50.930;5.168;2022-08-16T14:50:44;2.92;;;2.58;;
36575;SDS011;45700;50.930;5.168;2022-08-16T14:54:45;3.72;;;2.72;;
36575;SDS011;45700;50.930;5.168;2022-08-16T14:58:46;3.42;;;2.97;;
36575;SDS011;45700;50.930;5.168;2022-08-16T15:02:49;3.17;;;2.88;;
36575;SDS011;45700;50.930;5.168;2022-08-16T15:06:50;3.20;;;2.90;;
36575;SDS011;45700;50.930;5.168;2022-08-16T15:10:51;3.72;;;2.35;;
36575;SDS011;45700;50.930;5.168;2022-08-16T15:14:53;3.38;;;3.08;;
36575;SDS011;45700;50.930;5.168;2022-08-16T15:18:54;3.72;;;2.83;;
36575;SDS011;45700;50.930;5.168;2022-08-16T15:22:58;3.65;;;2.78;;
36575;SDS011;45700;50.930;5.168;2022-08-16T15:27:00;3.88;;;2.90;;
36575;SDS011;45700;50.930;5.168;2022-08-16T15:31:01;3.88;;;2.75;;
36575;SDS011;45700;50.930;5.168;2022-08-16T15:35:04;3.38;;;2.83;;
36575;SDS011;45700;50.930;5.168;2022-08-16T15:39:06;3.70;;;2.83;;
36575;SDS011;45700;50.930;5.168;2022-08-16T15:43:07;2.95;;;2.60;;
36575;SDS011;45700;50.930;5.168;2022-08-16T15:47:10;3.15;;;2.45;;
36575;SDS011;45700;50.930;5.168;2022-08-16T15:51:13;3.63;;;2.83;;
36575;SDS011;45700;50.930;5.168;2022-08-16T15:55:14;4.25;;;3.05;;
36575;SDS011;45700;50.930;5.168;2022-08-16T15:59:15;3.47;;;2.80;;
36575;SDS011;45700;50.930;5.168;2022-08-16T16:03:17;4.00;;;2.97;;
36575;SDS011;45700;50.930;5.168;2022-08-16T16:07:19;3.17;;;2.80;;
36575;SDS011;45700;50.930;5.168;2022-08-16T16:11:20;3.40;;;2.70;;
36575;SDS011;45700;50.930;5.168;2022-08-16T16:15:22;2.67;;;2.47;;
36575;SDS011;45700;50.930;5.168;2022-08-16T16:19:24;5.10;;;2.47;;
36575;SDS011;45700;50.930;5.168;2022-08-16T16:23:27;3.88;;;3.25;;
36575;SDS011;45700;50.930;5.168;2022-08-16T16:27:28;4.20;;;3.22;;
36575;SDS011;45700;50.930;5.168;2022-08-16T16:31:29;3.22;;;2.92;;
36575;SDS011;45700;50.930;5.168;2022-08-16T16:35:30;3.50;;;2.90;;
36575;SDS011;45700;50.930;5.168;2022-08-16T16:39:33;3.00;;;2.70;;
36575;SDS011;45700;50.930;5.168;2022-08-16T16:43:39;2.88;;;2.58;;
36575;SDS011;45700;50.930;5.168;2022-08-16T16:47:40;2.72;;;2.50;;
36575;SDS011;45700;50.930;5.168;2022-08-16T16:51:42;4.13;;;3.35;;
36575;SDS011;45700;50.930;5.168;2022-08-16T16:55:43;3.88;;;2.95;;
36575;SDS011;45700;50.930;5.168;2022-08-16T16:59:44;4.50;;;3.00;;
36575;SDS011;45700;50.930;5.168;2022-08-16T17:03:45;3.63;;;2.90;;
36575;SDS011;45700;50.930;5.168;2022-08-16T17:07:48;3.75;;;3.03;;
36575;SDS011;45700;50.930;5.168;2022-08-16T17:11:50;3.63;;;2.92;;
36575;SDS011;45700;50.930;5.168;2022-08-16T17:15:52;3.00;;;2.67;;
36575;SDS011;45700;50.930;5.168;2022-08-16T17:19:53;2.97;;;2.78;;
36575;SDS011;45700;50.930;5.168;2022-08-16T17:23:54;3.58;;;3.05;;
36575;SDS011;45700;50.930;5.168;2022-08-16T17:27:55;3.53;;;2.85;;
36575;SDS011;45700;50.930;5.168;2022-08-16T17:31:56;3.28;;;2.97;;
36575;SDS011;45700;50.930;5.168;2022-08-16T17:35:57;3.45;;;2.92;;
36575;SDS011;45700;50.930;5.168;2022-08-16T17:39:58;5.18;;;3.20;;
36575;SDS011;45700;50.930;5.168;2022-08-16T17:44:00;4.57;;;3.20;;
36575;SDS011;45700;50.930;5.168;2022-08-16T17:48:02;3.53;;;3.05;;
36575;SDS011;45700;50.930;5.168;2022-08-16T17:52:03;3.40;;;3.00;;
36575;SDS011;45700;50.930;5.168;2022-08-16T17:56:05;5.22;;;3.05;;
36575;SDS011;45700;50.930;5.168;2022-08-16T18:00:06;6.28;;;3.70;;
36575;SDS011;45700;50.930;5.168;2022-08-16T18:04:11;3.88;;;3.30;;
36575;SDS011;45700;50.930;5.168;2022-08-16T18:08:13;4.13;;;3.28;;
36575;SDS011;45700;50.930;5.168;2022-08-16T18:12:15;5.10;;;3.00;;
36575;SDS011;45700;50.930;5.168;2022-08-16T18:16:16;5.15;;;3.20;;
36575;SDS011;45700;50.930;5.168;2022-08-16T18:20:18;4.30;;;3.38;;
36575;SDS011;45700;50.930;5.168;2022-08-16T18:24:52;4.32;;;3.28;;
36575;SDS011;45700;50.930;5.168;2022-08-16T18:28:54;4.88;;;3.42;;
36575;SDS011;45700;50.930;5.168;2022-08-16T18:32:55;4.80;;;3.10;;
36575;SDS011;45700;50.930;5.168;2022-08-16T18:36:56;5.25;;;3.30;;
36575;SDS011;45700;50.930;5.168;2022-08-16T18:40:58;3.17;;;2.88;;
36575;SDS011;45700;50.930;5.168;2022-08-16T18:45:00;4.07;;;2.90;;
36575;SDS011;45700;50.930;5.168;2022-08-16T18:49:02;4.07;;;3.22;;
36575;SDS011;45700;50.930;5.168;2022-08-16T18:53:05;3.95;;;3.03;;
36575;SDS011;45700;50.930;5.168;2022-08-16T18:57:06;7.28;;;3.35;;
36575;SDS011;45700;50.930;5.168;2022-08-16T19:01:07;6.78;;;3.40;;
36575;SDS011;45700;50.930;5.168;2022-08-16T19:05:19;4.53;;;3.33;;
36575;SDS011;45700;50.930;5.168;2022-08-16T19:09:20;3.78;;;3.20;;
36575;SDS011;45700;50.930;5.168;2022-08-16T19:13:23;3.38;;;3.08;;
36575;SDS011;45700;50.930;5.168;2022-08-16T19:17:24;6.10;;;3.38;;
36575;SDS011;45700;50.930;5.168;2022-08-16T19:21:25;3.85;;;3.00;;
36575;SDS011;45700;50.930;5.168;2022-08-16T19:25:27;4.30;;;3.38;;
36575;SDS011;45700;50.930;5.168;2022-08-16T19:29:28;4.38;;;3.45;;
36575;SDS011;45700;50.930;5.168;2022-08-16T19:33:29;5.15;;;3.78;;
36575;SDS011;45700;50.930;5.168;2022-08-16T19:37:31;4.80;;;3.35;;
36575;SDS011;45700;50.930;5.168;2022-08-16T19:41:32;4.45;;;3.58;;
36575;SDS011;45700;50.930;5.168;2022-08-16T19:45:35;5.20;;;3.92;;
36575;SDS011;45700;50.930;5.168;2022-08-16T19:49:36;6.80;;;3.55;;
36575;SDS011;45700;50.930;5.168;2022-08-16T19:53:38;5.15;;;3.28;;
36575;SDS011;45700;50.930;5.168;2022-08-16T19:57:39;6.38;;;3.70;;
36575;SDS011;45700;50.930;5.168;2022-08-16T20:01:40;4.88;;;3.30;;
36575;SDS011;45700;50.930;5.168;2022-08-16T20:05:42;7.70;;;3.60;;
36575;SDS011;45700;50.930;5.168;2022-08-16T20:09:43;9.27;;;3.70;;
36575;SDS011;45700;50.930;5.168;2022-08-16T20:13:44;5.80;;;3.85;;
36575;SDS011;45700;50.930;5.168;2022-08-16T20:17:45;4.22;;;3.47;;
36575;SDS011;45700;50.930;5.168;2022-08-16T20:21:47;4.80;;;3.40;;
36575;SDS011;45700;50.930;5.168;2022-08-16T20:25:48;4.88;;;3.78;;
36575;SDS011;45700;50.930;5.168;2022-08-16T20:29:51;4.53;;;3.85;;
36575;SDS011;45700;50.930;5.168;2022-08-16T20:33:53;6.32;;;4.22;;
36575;SDS011;45700;50.930;5.168;2022-08-16T20:37:54;4.75;;;3.97;;
36575;SDS011;45700;50.930;5.168;2022-08-16T20:41:55;5.63;;;3.90;;
36575;SDS011;45700;50.930;5.168;2022-08-16T20:45:56;4.07;;;3.55;;
36575;SDS011;45700;50.930;5.168;2022-08-16T20:49:57;8.77;;;3.50;;
36575;SDS011;45700;50.930;5.168;2022-08-16T20:53:58;5.50;;;3.67;;
36575;SDS011;45700;50.930;5.168;2022-08-16T20:57:59;4.80;;;3.53;;
36575;SDS011;45700;50.930;5.168;2022-08-16T21:02:01;6.75;;;3.75;;
36575;SDS011;45700;50.930;5.168;2022-08-16T21:06:02;6.15;;;3.67;;
36575;SDS011;45700;50.930;5.168;2022-08-16T21:10:04;4.70;;;3.60;;
36575;SDS011;45700;50.930;5.168;2022-08-16T21:14:06;4.75;;;4.05;;
36575;SDS011;45700;50.930;5.168;2022-08-16T21:18:09;6.22;;;4.03;;
36575;SDS011;45700;50.930;5.168;2022-08-16T21:22:15;6.40;;;3.90;;
36575;SDS011;45700;50.930;5.168;2022-08-16T21:26:16;4.30;;;3.78;;
36575;SDS011;45700;50.930;5.168;2022-08-16T21:30:17;5.95;;;4.32;;
36575;SDS011;45700;50.930;5.168;2022-08-16T21:34:19;5.57;;;3.90;;
36575;SDS011;45700;50.930;5.168;2022-08-16T21:38:20;5.95;;;4.05;;
36575;SDS011;45700;50.930;5.168;2022-08-16T21:42:21;5.15;;;3.97;;
36575;SDS011;45700;50.930;5.168;2022-08-16T21:46:22;8.73;;;4.28;;
36575;SDS011;45700;50.930;5.168;2022-08-16T21:50:23;6.25;;;4.00;;
36575;SDS011;45700;50.930;5.168;2022-08-16T21:54:24;7.10;;;4.25;;
36575;SDS011;45700;50.930;5.168;2022-08-16T21:58:25;6.38;;;4.13;;
36575;SDS011;45700;50.930;5.168;2022-08-16T22:02:26;9.65;;;4.50;;
36575;SDS011;45700;50.930;5.168;2022-08-16T22:06:27;6.88;;;4.50;;
36575;SDS011;45700;50.930;5.168;2022-08-16T22:10:28;5.15;;;4.18;;
36575;SDS011;45700;50.930;5.168;2022-08-16T22:14:30;4.90;;;4.35;;
36575;SDS011;45700;50.930;5.168;2022-08-16T22:18:31;6.40;;;4.10;;
36575;SDS011;45700;50.930;5.168;2022-08-16T22:22:32;6.80;;;4.20;;
36575;SDS011;45700;50.930;5.168;2022-08-16T22:26:35;5.88;;;3.85;;
36575;SDS011;45700;50.930;5.168;2022-08-16T22:30:36;5.00;;;3.85;;
36575;SDS011;45700;50.930;5.168;2022-08-16T22:34:38;6.18;;;4.40;;
36575;SDS011;45700;50.930;5.168;2022-08-16T22:38:39;7.38;;;3.88;;
36575;SDS011;45700;50.930;5.168;2022-08-16T22:42:47;7.25;;;4.22;;
36575;SDS011;45700;50.930;5.168;2022-08-16T22:46:48;5.35;;;4.10;;
36575;SDS011;45700;50.930;5.168;2022-08-16T22:50:49;5.70;;;4.10;;
36575;SDS011;45700;50.930;5.168;2022-08-16T22:54:50;6.60;;;4.22;;
36575;SDS011;45700;50.930;5.168;2022-08-16T22:58:51;5.82;;;3.97;;
36575;SDS011;45700;50.930;5.168;2022-08-16T23:06:54;5.32;;;4.18;;
36575;SDS011;45700;50.930;5.168;2022-08-16T23:10:55;5.88;;;4.53;;
36575;SDS011;45700;50.930;5.168;2022-08-16T23:14:58;7.85;;;5.03;;
36575;SDS011;45700;50.930;5.168;2022-08-16T23:19:04;6.05;;;4.30;;
36575;SDS011;45700;50.930;5.168;2022-08-16T23:23:06;6.55;;;4.80;;
36575;SDS011;45700;50.930;5.168;2022-08-16T23:27:07;7.45;;;4.68;;
36575;SDS011;45700;50.930;5.168;2022-08-16T23:31:09;6.90;;;4.20;;
36575;SDS011;45700;50.930;5.168;2022-08-16T23:35:10;6.15;;;4.10;;
36575;SDS011;45700;50.930;5.168;2022-08-16T23:39:11;6.63;;;4.72;;
36575;SDS011;45700;50.930;5.168;2022-08-16T23:43:14;11.65;;;5.60;;
36575;SDS011;45700;50.930;5.168;2022-08-16T23:47:16;7.47;;;5.35;;
36575;SDS011;45700;50.930;5.168;2022-08-16T23:51:17;8.00;;;5.18;;
36575;SDS011;45700;50.930;5.168;2022-08-16T23:55:18;5.82;;;4.55;;
36575;SDS011;45700;50.930;5.168;2022-08-16T23:59:19;10.13;;;5.15;;
